Merricourt, North Dakota
Current Conditions -  °F | °C
As of 10:56 AM on Thursday 25 Dec 2014 (Local Time) from KJMS Reporting Station
Overcast Overcast  
Wind Chill: 12°   Ceiling: 1000
Heat Index: 24°   Visibility: 10mi
Dew Point: 20°   Wind: 14mph
Humidity: 84%   Direction: 350°N
Pressure: 29.75"   Gusts: NA
Location:  46.2592°N, 98.7407°W
Report Text: KJMS 251656Z AUTO 35012KT 10SM OVC010 M04/M07 A2975 RMK AO2 SLP095 T10441067
Loading
Personal Weather Stations






























Interactive Weather Map New forecast layout! Learn more

10-Day Weather Forecast

Advertisements
Track Severe Weather on mobile